Cumby, Texas
Current Conditions -  °F | °C
As of 11:55 AM on Friday 19 Dec 2014 (Local Time) from KSLR Reporting Station
Haze Haze  
Wind Chill: 42°   Ceiling: 500
Heat Index: 46°   Visibility: 3mi
Dew Point: 45°   Wind: 8mph
Humidity: 95%   Direction: 40°NE
Pressure: 30.2"   Gusts: NA
Location:  33.14°N, 95.84°W
Report Text: KSLR 191755Z AUTO 04007KT 3SM BR OVC005 08/07 A3020 RMK AO2 60003 T00800073 10080 20075
Loading
Personal Weather Stations






























Interactive Weather Map New forecast layout! Learn more

10-Day Weather Forecast

Advertisements
Track Severe Weather on mobile